sensor_id;sensor_type;location;lat;lon;timestamp;P1;durP1;ratioP1;P2;durP2;ratioP2
1402;SDS011;696;48.546;9.896;2023-05-07T00:01:02;2.10;;;1.42;;
1402;SDS011;696;48.546;9.896;2023-05-07T00:03:27;6.15;;;2.30;;
1402;SDS011;696;48.546;9.896;2023-05-07T00:05:53;3.63;;;2.38;;
1402;SDS011;696;48.546;9.896;2023-05-07T00:08:19;2.90;;;2.03;;
1402;SDS011;696;48.546;9.896;2023-05-07T00:10:45;18.02;;;2.28;;
1402;SDS011;696;48.546;9.896;2023-05-07T00:13:11;2.63;;;1.60;;
1402;SDS011;696;48.546;9.896;2023-05-07T00:15:36;2.90;;;1.70;;
1402;SDS011;696;48.546;9.896;2023-05-07T00:18:02;2.20;;;1.40;;
1402;SDS011;696;48.546;9.896;2023-05-07T00:20:27;2.33;;;1.63;;
1402;SDS011;696;48.546;9.896;2023-05-07T00:22:52;2.83;;;1.30;;
1402;SDS011;696;48.546;9.896;2023-05-07T00:25:18;2.38;;;1.60;;
1402;SDS011;696;48.546;9.896;2023-05-07T00:27:44;2.83;;;1.58;;
1402;SDS011;696;48.546;9.896;2023-05-07T00:30:10;2.08;;;1.65;;
1402;SDS011;696;48.546;9.896;2023-05-07T00:32:36;2.97;;;1.83;;
1402;SDS011;696;48.546;9.896;2023-05-07T00:35:01;1.63;;;1.52;;
1402;SDS011;696;48.546;9.896;2023-05-07T00:37:27;6.80;;;2.00;;
1402;SDS011;696;48.546;9.896;2023-05-07T00:39:52;2.15;;;1.70;;
1402;SDS011;696;48.546;9.896;2023-05-07T00:42:18;2.30;;;1.80;;
1402;SDS011;696;48.546;9.896;2023-05-07T00:44:43;1.73;;;1.60;;
1402;SDS011;696;48.546;9.896;2023-05-07T00:47:08;1.90;;;1.63;;
1402;SDS011;696;48.546;9.896;2023-05-07T00:49:36;3.55;;;2.30;;
1402;SDS011;696;48.546;9.896;2023-05-07T00:52:03;3.55;;;1.77;;
1402;SDS011;696;48.546;9.896;2023-05-07T00:54:30;1.90;;;1.73;;
1402;SDS011;696;48.546;9.896;2023-05-07T00:56:55;3.22;;;2.00;;
1402;SDS011;696;48.546;9.896;2023-05-07T00:59:21;2.13;;;1.58;;
1402;SDS011;696;48.546;9.896;2023-05-07T01:01:46;3.15;;;1.90;;
1402;SDS011;696;48.546;9.896;2023-05-07T01:04:12;1.83;;;1.52;;
1402;SDS011;696;48.546;9.896;2023-05-07T01:06:37;5.22;;;1.70;;
1402;SDS011;696;48.546;9.896;2023-05-07T01:09:03;2.83;;;2.10;;
1402;SDS011;696;48.546;9.896;2023-05-07T01:11:29;22.08;;;2.00;;
1402;SDS011;696;48.546;9.896;2023-05-07T01:13:54;1.90;;;1.67;;
1402;SDS011;696;48.546;9.896;2023-05-07T01:16:21;2.50;;;1.85;;
1402;SDS011;696;48.546;9.896;2023-05-07T01:18:46;2.15;;;1.70;;
1402;SDS011;696;48.546;9.896;2023-05-07T01:21:13;9.98;;;2.17;;
1402;SDS011;696;48.546;9.896;2023-05-07T01:23:40;1.85;;;1.67;;
1402;SDS011;696;48.546;9.896;2023-05-07T01:26:06;1.98;;;1.77;;
1402;SDS011;696;48.546;9.896;2023-05-07T01:28:31;2.10;;;1.70;;
1402;SDS011;696;48.546;9.896;2023-05-07T01:31:00;5.20;;;2.60;;
1402;SDS011;696;48.546;9.896;2023-05-07T01:33:29;3.80;;;1.80;;
1402;SDS011;696;48.546;9.896;2023-05-07T01:35:57;1.77;;;1.45;;
1402;SDS011;696;48.546;9.896;2023-05-07T01:38:23;2.58;;;1.60;;
1402;SDS011;696;48.546;9.896;2023-05-07T01:40:48;3.50;;;1.88;;
1402;SDS011;696;48.546;9.896;2023-05-07T01:43:14;3.50;;;1.90;;
1402;SDS011;696;48.546;9.896;2023-05-07T01:45:40;1.50;;;1.40;;
1402;SDS011;696;48.546;9.896;2023-05-07T01:48:06;1.92;;;1.75;;
1402;SDS011;696;48.546;9.896;2023-05-07T01:50:32;1.70;;;1.60;;
1402;SDS011;696;48.546;9.896;2023-05-07T01:52:58;2.20;;;1.92;;
1402;SDS011;696;48.546;9.896;2023-05-07T01:55:24;2.55;;;1.88;;
1402;SDS011;696;48.546;9.896;2023-05-07T01:57:49;3.40;;;1.85;;
1402;SDS011;696;48.546;9.896;2023-05-07T02:00:15;4.35;;;1.80;;
1402;SDS011;696;48.546;9.896;2023-05-07T02:02:40;2.80;;;1.70;;
1402;SDS011;696;48.546;9.896;2023-05-07T02:05:06;2.13;;;1.83;;
1402;SDS011;696;48.546;9.896;2023-05-07T02:07:31;2.60;;;2.17;;
1402;SDS011;696;48.546;9.896;2023-05-07T02:09:57;3.83;;;2.05;;
1402;SDS011;696;48.546;9.896;2023-05-07T02:12:22;4.13;;;1.67;;
1402;SDS011;696;48.546;9.896;2023-05-07T02:14:48;3.58;;;2.20;;
1402;SDS011;696;48.546;9.896;2023-05-07T02:17:13;3.22;;;2.00;;
1402;SDS011;696;48.546;9.896;2023-05-07T02:19:38;1.83;;;1.65;;
1402;SDS011;696;48.546;9.896;2023-05-07T02:22:04;1.98;;;1.80;;
1402;SDS011;696;48.546;9.896;2023-05-07T02:24:29;1.65;;;1.48;;
1402;SDS011;696;48.546;9.896;2023-05-07T02:26:55;4.13;;;1.80;;
1402;SDS011;696;48.546;9.896;2023-05-07T02:29:20;2.20;;;1.85;;
1402;SDS011;696;48.546;9.896;2023-05-07T02:31:45;3.53;;;1.63;;
1402;SDS011;696;48.546;9.896;2023-05-07T02:34:11;3.85;;;2.08;;
1402;SDS011;696;48.546;9.896;2023-05-07T02:36:36;3.30;;;1.95;;
1402;SDS011;696;48.546;9.896;2023-05-07T02:39:02;2.35;;;1.85;;
1402;SDS011;696;48.546;9.896;2023-05-07T02:41:28;1.83;;;1.55;;
1402;SDS011;696;48.546;9.896;2023-05-07T02:43:53;3.53;;;2.08;;
1402;SDS011;696;48.546;9.896;2023-05-07T02:46:18;2.40;;;1.95;;
1402;SDS011;696;48.546;9.896;2023-05-07T02:48:44;3.47;;;2.15;;
1402;SDS011;696;48.546;9.896;2023-05-07T02:51:09;1.70;;;1.60;;
1402;SDS011;696;48.546;9.896;2023-05-07T02:53:35;2.47;;;1.80;;
1402;SDS011;696;48.546;9.896;2023-05-07T02:56:00;3.05;;;2.28;;
1402;SDS011;696;48.546;9.896;2023-05-07T02:58:26;3.45;;;2.17;;
1402;SDS011;696;48.546;9.896;2023-05-07T03:00:52;4.05;;;2.53;;
1402;SDS011;696;48.546;9.896;2023-05-07T03:03:19;3.15;;;2.42;;
1402;SDS011;696;48.546;9.896;2023-05-07T03:05:45;3.95;;;2.20;;
1402;SDS011;696;48.546;9.896;2023-05-07T03:08:10;6.43;;;2.38;;
1402;SDS011;696;48.546;9.896;2023-05-07T03:10:36;3.53;;;2.05;;
1402;SDS011;696;48.546;9.896;2023-05-07T03:13:02;2.25;;;1.92;;
1402;SDS011;696;48.546;9.896;2023-05-07T03:15:27;2.90;;;2.28;;
1402;SDS011;696;48.546;9.896;2023-05-07T03:17:53;3.15;;;1.85;;
1402;SDS011;696;48.546;9.896;2023-05-07T03:20:18;2.47;;;2.00;;
1402;SDS011;696;48.546;9.896;2023-05-07T03:22:43;2.22;;;2.03;;
1402;SDS011;696;48.546;9.896;2023-05-07T03:25:09;2.20;;;1.90;;
1402;SDS011;696;48.546;9.896;2023-05-07T03:27:35;2.30;;;1.90;;
1402;SDS011;696;48.546;9.896;2023-05-07T03:30:00;2.20;;;1.50;;
1402;SDS011;696;48.546;9.896;2023-05-07T03:32:25;2.55;;;2.08;;
1402;SDS011;696;48.546;9.896;2023-05-07T03:34:51;2.95;;;2.17;;
1402;SDS011;696;48.546;9.896;2023-05-07T03:37:16;2.28;;;2.08;;
1402;SDS011;696;48.546;9.896;2023-05-07T03:39:42;1.98;;;1.77;;
1402;SDS011;696;48.546;9.896;2023-05-07T03:42:07;3.30;;;2.15;;
1402;SDS011;696;48.546;9.896;2023-05-07T03:44:32;2.47;;;2.10;;
1402;SDS011;696;48.546;9.896;2023-05-07T03:46:58;2.40;;;2.17;;
1402;SDS011;696;48.546;9.896;2023-05-07T03:49:23;5.55;;;2.35;;
1402;SDS011;696;48.546;9.896;2023-05-07T03:51:48;3.20;;;2.22;;
1402;SDS011;696;48.546;9.896;2023-05-07T03:54:14;2.30;;;1.63;;
1402;SDS011;696;48.546;9.896;2023-05-07T03:56:39;5.22;;;2.20;;
1402;SDS011;696;48.546;9.896;2023-05-07T03:59:05;2.22;;;2.05;;
1402;SDS011;696;48.546;9.896;2023-05-07T04:01:30;3.33;;;2.38;;
1402;SDS011;696;48.546;9.896;2023-05-07T04:03:55;2.45;;;2.20;;
1402;SDS011;696;48.546;9.896;2023-05-07T04:06:21;3.58;;;2.33;;
1402;SDS011;696;48.546;9.896;2023-05-07T04:08:46;3.28;;;2.15;;
1402;SDS011;696;48.546;9.896;2023-05-07T04:11:11;2.80;;;2.25;;
1402;SDS011;696;48.546;9.896;2023-05-07T04:13:37;3.53;;;2.30;;
1402;SDS011;696;48.546;9.896;2023-05-07T04:18:29;2.38;;;2.17;;
1402;SDS011;696;48.546;9.896;2023-05-07T04:20:55;4.60;;;2.50;;
1402;SDS011;696;48.546;9.896;2023-05-07T04:23:20;3.72;;;2.58;;
1402;SDS011;696;48.546;9.896;2023-05-07T04:25:45;2.35;;;2.13;;
1402;SDS011;696;48.546;9.896;2023-05-07T04:28:11;2.83;;;2.25;;
1402;SDS011;696;48.546;9.896;2023-05-07T04:30:37;3.92;;;2.30;;
1402;SDS011;696;48.546;9.896;2023-05-07T04:33:02;5.38;;;2.72;;
1402;SDS011;696;48.546;9.896;2023-05-07T04:35:28;2.58;;;2.08;;
1402;SDS011;696;48.546;9.896;2023-05-07T04:37:53;5.40;;;2.38;;
1402;SDS011;696;48.546;9.896;2023-05-07T04:40:19;3.10;;;2.42;;
1402;SDS011;696;48.546;9.896;2023-05-07T04:42:44;2.47;;;2.00;;
1402;SDS011;696;48.546;9.896;2023-05-07T04:45:10;2.85;;;1.98;;
1402;SDS011;696;48.546;9.896;2023-05-07T04:47:37;3.63;;;2.35;;
1402;SDS011;696;48.546;9.896;2023-05-07T04:50:02;2.78;;;2.08;;
1402;SDS011;696;48.546;9.896;2023-05-07T04:52:28;4.03;;;2.30;;
1402;SDS011;696;48.546;9.896;2023-05-07T04:54:53;4.45;;;2.22;;
1402;SDS011;696;48.546;9.896;2023-05-07T04:57:18;3.47;;;2.65;;
1402;SDS011;696;48.546;9.896;2023-05-07T04:59:44;4.43;;;2.40;;
1402;SDS011;696;48.546;9.896;2023-05-07T05:02:10;3.13;;;2.60;;
1402;SDS011;696;48.546;9.896;2023-05-07T05:04:35;3.50;;;2.20;;
1402;SDS011;696;48.546;9.896;2023-05-07T05:07:01;3.33;;;2.45;;
1402;SDS011;696;48.546;9.896;2023-05-07T05:09:28;2.78;;;2.15;;
1402;SDS011;696;48.546;9.896;2023-05-07T05:11:53;2.72;;;2.30;;
1402;SDS011;696;48.546;9.896;2023-05-07T05:14:19;4.03;;;2.03;;
1402;SDS011;696;48.546;9.896;2023-05-07T05:16:44;4.00;;;2.20;;
1402;SDS011;696;48.546;9.896;2023-05-07T05:19:10;4.35;;;2.67;;
1402;SDS011;696;48.546;9.896;2023-05-07T05:21:35;3.45;;;2.40;;
1402;SDS011;696;48.546;9.896;2023-05-07T05:24:00;4.85;;;2.47;;
1402;SDS011;696;48.546;9.896;2023-05-07T05:26:26;10.85;;;2.58;;
1402;SDS011;696;48.546;9.896;2023-05-07T05:28:51;4.22;;;2.53;;
1402;SDS011;696;48.546;9.896;2023-05-07T05:31:16;6.82;;;2.30;;
1402;SDS011;696;48.546;9.896;2023-05-07T05:33:42;3.30;;;2.30;;
1402;SDS011;696;48.546;9.896;2023-05-07T05:36:10;2.58;;;2.00;;
1402;SDS011;696;48.546;9.896;2023-05-07T05:38:37;3.55;;;2.30;;
1402;SDS011;696;48.546;9.896;2023-05-07T05:41:02;3.28;;;2.63;;
1402;SDS011;696;48.546;9.896;2023-05-07T05:43:28;3.30;;;2.25;;
1402;SDS011;696;48.546;9.896;2023-05-07T05:45:53;3.05;;;2.42;;
1402;SDS011;696;48.546;9.896;2023-05-07T05:48:20;4.95;;;2.17;;
1402;SDS011;696;48.546;9.896;2023-05-07T05:50:45;3.47;;;2.25;;
1402;SDS011;696;48.546;9.896;2023-05-07T05:53:11;2.75;;;2.40;;
1402;SDS011;696;48.546;9.896;2023-05-07T05:55:36;4.70;;;2.15;;
1402;SDS011;696;48.546;9.896;2023-05-07T05:58:01;4.35;;;2.28;;
1402;SDS011;696;48.546;9.896;2023-05-07T06:00:27;4.32;;;3.10;;
1402;SDS011;696;48.546;9.896;2023-05-07T06:02:53;3.47;;;2.75;;
1402;SDS011;696;48.546;9.896;2023-05-07T06:05:18;4.10;;;2.60;;
1402;SDS011;696;48.546;9.896;2023-05-07T06:07:43;3.03;;;2.53;;
1402;SDS011;696;48.546;9.896;2023-05-07T06:10:09;2.90;;;2.38;;
1402;SDS011;696;48.546;9.896;2023-05-07T06:12:35;3.95;;;2.75;;
1402;SDS011;696;48.546;9.896;2023-05-07T06:15:00;4.55;;;2.88;;
1402;SDS011;696;48.546;9.896;2023-05-07T06:17:26;5.18;;;2.75;;
1402;SDS011;696;48.546;9.896;2023-05-07T06:19:51;6.47;;;3.10;;
1402;SDS011;696;48.546;9.896;2023-05-07T06:22:17;8.98;;;3.03;;
1402;SDS011;696;48.546;9.896;2023-05-07T06:24:42;3.47;;;2.65;;
1402;SDS011;696;48.546;9.896;2023-05-07T06:27:08;4.55;;;2.55;;
1402;SDS011;696;48.546;9.896;2023-05-07T06:29:33;4.97;;;3.25;;
1402;SDS011;696;48.546;9.896;2023-05-07T06:32:08;5.45;;;3.08;;
1402;SDS011;696;48.546;9.896;2023-05-07T06:34:34;5.55;;;3.33;;
1402;SDS011;696;48.546;9.896;2023-05-07T06:37:00;5.68;;;3.55;;
1402;SDS011;696;48.546;9.896;2023-05-07T06:39:25;4.60;;;3.60;;
1402;SDS011;696;48.546;9.896;2023-05-07T06:41:51;5.60;;;4.07;;
1402;SDS011;696;48.546;9.896;2023-05-07T06:44:16;6.47;;;3.65;;
1402;SDS011;696;48.546;9.896;2023-05-07T06:46:41;14.90;;;4.32;;
1402;SDS011;696;48.546;9.896;2023-05-07T06:49:07;6.53;;;4.25;;
1402;SDS011;696;48.546;9.896;2023-05-07T06:51:32;5.15;;;4.05;;
1402;SDS011;696;48.546;9.896;2023-05-07T06:53:58;6.70;;;4.05;;
1402;SDS011;696;48.546;9.896;2023-05-07T06:56:23;6.40;;;3.97;;
1402;SDS011;696;48.546;9.896;2023-05-07T06:58:49;7.80;;;4.65;;
1402;SDS011;696;48.546;9.896;2023-05-07T07:01:14;5.05;;;3.60;;
1402;SDS011;696;48.546;9.896;2023-05-07T07:03:40;7.25;;;4.47;;
1402;SDS011;696;48.546;9.896;2023-05-07T07:06:05;6.95;;;4.07;;
1402;SDS011;696;48.546;9.896;2023-05-07T07:08:30;11.30;;;4.38;;
1402;SDS011;696;48.546;9.896;2023-05-07T07:10:56;9.45;;;4.00;;
1402;SDS011;696;48.546;9.896;2023-05-07T07:13:21;5.18;;;4.03;;
1402;SDS011;696;48.546;9.896;2023-05-07T07:15:46;5.28;;;3.72;;
1402;SDS011;696;48.546;9.896;2023-05-07T07:18:12;4.68;;;3.97;;
1402;SDS011;696;48.546;9.896;2023-05-07T07:20:37;6.07;;;4.20;;
1402;SDS011;696;48.546;9.896;2023-05-07T07:23:02;6.40;;;4.50;;
1402;SDS011;696;48.546;9.896;2023-05-07T07:25:28;7.72;;;3.40;;
1402;SDS011;696;48.546;9.896;2023-05-07T07:27:53;3.92;;;3.25;;
1402;SDS011;696;48.546;9.896;2023-05-07T07:30:18;6.28;;;3.50;;
1402;SDS011;696;48.546;9.896;2023-05-07T07:32:44;10.80;;;3.65;;
1402;SDS011;696;48.546;9.896;2023-05-07T07:35:09;5.88;;;3.45;;
1402;SDS011;696;48.546;9.896;2023-05-07T07:37:35;5.50;;;3.20;;
1402;SDS011;696;48.546;9.896;2023-05-07T07:40:00;4.45;;;2.88;;
1402;SDS011;696;48.546;9.896;2023-05-07T07:42:26;6.20;;;2.67;;
1402;SDS011;696;48.546;9.896;2023-05-07T07:44:51;4.15;;;2.88;;
1402;SDS011;696;48.546;9.896;2023-05-07T07:47:17;4.10;;;2.67;;
1402;SDS011;696;48.546;9.896;2023-05-07T07:49:42;2.63;;;2.22;;
1402;SDS011;696;48.546;9.896;2023-05-07T07:52:08;3.03;;;2.05;;
1402;SDS011;696;48.546;9.896;2023-05-07T07:54:33;3.65;;;2.35;;
1402;SDS011;696;48.546;9.896;2023-05-07T07:56:58;5.45;;;2.50;;
1402;SDS011;696;48.546;9.896;2023-05-07T07:59:24;2.63;;;2.17;;
1402;SDS011;696;48.546;9.896;2023-05-07T08:01:49;5.28;;;2.17;;
1402;SDS011;696;48.546;9.896;2023-05-07T08:04:15;5.05;;;2.78;;
1402;SDS011;696;48.546;9.896;2023-05-07T08:06:40;3.35;;;2.15;;
1402;SDS011;696;48.546;9.896;2023-05-07T08:09:06;3.08;;;2.25;;
1402;SDS011;696;48.546;9.896;2023-05-07T08:11:31;2.90;;;2.30;;
1402;SDS011;696;48.546;9.896;2023-05-07T08:13:56;2.80;;;1.83;;
1402;SDS011;696;48.546;9.896;2023-05-07T08:16:22;4.50;;;2.20;;
1402;SDS011;696;48.546;9.896;2023-05-07T08:18:47;3.55;;;2.55;;
1402;SDS011;696;48.546;9.896;2023-05-07T08:21:12;3.28;;;2.10;;
1402;SDS011;696;48.546;9.896;2023-05-07T08:23:38;4.60;;;2.08;;
1402;SDS011;696;48.546;9.896;2023-05-07T08:26:03;13.38;;;2.45;;
1402;SDS011;696;48.546;9.896;2023-05-07T08:28:28;2.50;;;2.00;;
1402;SDS011;696;48.546;9.896;2023-05-07T08:30:54;4.07;;;2.30;;
1402;SDS011;696;48.546;9.896;2023-05-07T08:33:21;2.00;;;1.80;;
1402;SDS011;696;48.546;9.896;2023-05-07T08:35:46;3.35;;;1.85;;
1402;SDS011;696;48.546;9.896;2023-05-07T08:38:12;3.08;;;2.33;;
1402;SDS011;696;48.546;9.896;2023-05-07T08:40:37;6.25;;;3.63;;
1402;SDS011;696;48.546;9.896;2023-05-07T08:43:05;2.47;;;2.13;;
1402;SDS011;696;48.546;9.896;2023-05-07T08:45:30;2.70;;;2.22;;
1402;SDS011;696;48.546;9.896;2023-05-07T08:47:58;4.05;;;2.63;;
1402;SDS011;696;48.546;9.896;2023-05-07T08:50:24;5.38;;;2.20;;
1402;SDS011;696;48.546;9.896;2023-05-07T08:52:49;3.28;;;2.22;;
1402;SDS011;696;48.546;9.896;2023-05-07T08:55:15;3.42;;;2.47;;
1402;SDS011;696;48.546;9.896;2023-05-07T08:57:40;3.65;;;2.42;;
1402;SDS011;696;48.546;9.896;2023-05-07T09:00:06;7.30;;;2.25;;
1402;SDS011;696;48.546;9.896;2023-05-07T09:02:32;3.38;;;2.42;;
1402;SDS011;696;48.546;9.896;2023-05-07T09:04:58;3.58;;;2.30;;
1402;SDS011;696;48.546;9.896;2023-05-07T09:07:23;4.07;;;2.30;;
1402;SDS011;696;48.546;9.896;2023-05-07T09:09:50;3.75;;;2.95;;
1402;SDS011;696;48.546;9.896;2023-05-07T09:12:15;4.68;;;2.40;;
1402;SDS011;696;48.546;9.896;2023-05-07T09:14:42;2.83;;;2.08;;
1402;SDS011;696;48.546;9.896;2023-05-07T09:17:07;2.90;;;2.63;;
1402;SDS011;696;48.546;9.896;2023-05-07T09:19:33;2.78;;;2.33;;
1402;SDS011;696;48.546;9.896;2023-05-07T09:22:02;4.10;;;2.58;;
1402;SDS011;696;48.546;9.896;2023-05-07T09:24:28;5.30;;;2.30;;
1402;SDS011;696;48.546;9.896;2023-05-07T09:26:58;3.38;;;2.28;;
1402;SDS011;696;48.546;9.896;2023-05-07T09:29:25;3.72;;;2.42;;
1402;SDS011;696;48.546;9.896;2023-05-07T09:31:50;5.15;;;3.33;;
1402;SDS011;696;48.546;9.896;2023-05-07T09:34:16;3.42;;;2.50;;
1402;SDS011;696;48.546;9.896;2023-05-07T09:36:41;3.00;;;2.53;;
1402;SDS011;696;48.546;9.896;2023-05-07T09:39:07;3.10;;;2.75;;
1402;SDS011;696;48.546;9.896;2023-05-07T09:41:32;3.47;;;2.45;;
1402;SDS011;696;48.546;9.896;2023-05-07T09:43:58;2.42;;;2.22;;
1402;SDS011;696;48.546;9.896;2023-05-07T09:46:32;4.05;;;2.38;;
1402;SDS011;696;48.546;9.896;2023-05-07T09:48:59;2.60;;;2.13;;
1402;SDS011;696;48.546;9.896;2023-05-07T09:51:30;4.13;;;2.70;;
1402;SDS011;696;48.546;9.896;2023-05-07T09:54:00;2.13;;;1.85;;
1402;SDS011;696;48.546;9.896;2023-05-07T09:56:29;4.15;;;2.63;;
1402;SDS011;696;48.546;9.896;2023-05-07T09:58:55;5.13;;;3.10;;
1402;SDS011;696;48.546;9.896;2023-05-07T10:01:21;5.45;;;2.13;;
1402;SDS011;696;48.546;9.896;2023-05-07T10:03:47;2.67;;;2.08;;
1402;SDS011;696;48.546;9.896;2023-05-07T10:06:15;6.22;;;2.70;;
1402;SDS011;696;48.546;9.896;2023-05-07T10:08:40;2.83;;;2.50;;
1402;SDS011;696;48.546;9.896;2023-05-07T10:11:07;4.50;;;2.60;;
1402;SDS011;696;48.546;9.896;2023-05-07T10:13:34;5.60;;;2.90;;
1402;SDS011;696;48.546;9.896;2023-05-07T10:16:01;3.27;;;2.03;;
1402;SDS011;696;48.546;9.896;2023-05-07T10:18:28;2.25;;;2.05;;
1402;SDS011;696;48.546;9.896;2023-05-07T10:20:58;3.35;;;2.00;;
1402;SDS011;696;48.546;9.896;2023-05-07T10:23:30;4.57;;;1.87;;
1402;SDS011;696;48.546;9.896;2023-05-07T10:25:56;2.42;;;2.17;;
1402;SDS011;696;48.546;9.896;2023-05-07T10:28:22;4.28;;;2.08;;
1402;SDS011;696;48.546;9.896;2023-05-07T10:30:56;4.40;;;1.80;;
1402;SDS011;696;48.546;9.896;2023-05-07T10:33:27;5.05;;;1.95;;
1402;SDS011;696;48.546;9.896;2023-05-07T10:35:58;4.38;;;2.08;;
1402;SDS011;696;48.546;9.896;2023-05-07T10:38:25;1.48;;;1.27;;
1402;SDS011;696;48.546;9.896;2023-05-07T10:40:52;1.60;;;1.50;;
1402;SDS011;696;48.546;9.896;2023-05-07T10:43:17;3.97;;;1.80;;
1402;SDS011;696;48.546;9.896;2023-05-07T10:45:43;2.55;;;2.10;;
1402;SDS011;696;48.546;9.896;2023-05-07T10:50:41;1.88;;;1.40;;
1402;SDS011;696;48.546;9.896;2023-05-07T10:55:49;3.50;;;1.73;;
1402;SDS011;696;48.546;9.896;2023-05-07T10:58:24;1.60;;;1.30;;
1402;SDS011;696;48.546;9.896;2023-05-07T11:00:55;1.27;;;1.13;;
1402;SDS011;696;48.546;9.896;2023-05-07T11:03:21;2.92;;;1.52;;
1402;SDS011;696;48.546;9.896;2023-05-07T11:05:47;4.57;;;1.42;;
1402;SDS011;696;48.546;9.896;2023-05-07T11:08:13;4.38;;;1.63;;
1402;SDS011;696;48.546;9.896;2023-05-07T11:10:49;1.38;;;1.25;;
1402;SDS011;696;48.546;9.896;2023-05-07T11:13:17;3.72;;;1.10;;
1402;SDS011;696;48.546;9.896;2023-05-07T11:15:47;2.08;;;1.55;;
1402;SDS011;696;48.546;9.896;2023-05-07T11:18:14;1.25;;;1.10;;
1402;SDS011;696;48.546;9.896;2023-05-07T11:20:46;1.73;;;1.40;;
1402;SDS011;696;48.546;9.896;2023-05-07T11:26:09;3.03;;;1.60;;
1402;SDS011;696;48.546;9.896;2023-05-07T11:28:37;2.10;;;1.52;;
1402;SDS011;696;48.546;9.896;2023-05-07T11:31:03;3.63;;;2.00;;
1402;SDS011;696;48.546;9.896;2023-05-07T11:33:32;1.48;;;1.35;;
1402;SDS011;696;48.546;9.896;2023-05-07T11:35:59;2.45;;;1.30;;
1402;SDS011;696;48.546;9.896;2023-05-07T11:38:25;1.67;;;1.02;;
1402;SDS011;696;48.546;9.896;2023-05-07T11:40:51;4.18;;;1.73;;
1402;SDS011;696;48.546;9.896;2023-05-07T11:43:17;3.15;;;1.92;;
1402;SDS011;696;48.546;9.896;2023-05-07T11:45:43;3.78;;;1.85;;
1402;SDS011;696;48.546;9.896;2023-05-07T11:48:09;3.38;;;1.58;;
1402;SDS011;696;48.546;9.896;2023-05-07T11:50:35;3.15;;;1.70;;
1402;SDS011;696;48.546;9.896;2023-05-07T11:53:06;2.80;;;1.63;;
1402;SDS011;696;48.546;9.896;2023-05-07T11:55:32;1.75;;;1.38;;
1402;SDS011;696;48.546;9.896;2023-05-07T11:57:58;2.95;;;1.95;;
1402;SDS011;696;48.546;9.896;2023-05-07T12:00:23;2.67;;;2.05;;
1402;SDS011;696;48.546;9.896;2023-05-07T12:02:48;3.63;;;2.28;;
1402;SDS011;696;48.546;9.896;2023-05-07T12:05:14;3.63;;;2.03;;
1402;SDS011;696;48.546;9.896;2023-05-07T12:07:39;4.50;;;2.35;;
1402;SDS011;696;48.546;9.896;2023-05-07T12:10:05;1.67;;;1.58;;
1402;SDS011;696;48.546;9.896;2023-05-07T12:12:37;3.80;;;1.88;;
1402;SDS011;696;48.546;9.896;2023-05-07T12:15:05;4.32;;;2.03;;
1402;SDS011;696;48.546;9.896;2023-05-07T12:17:31;2.08;;;1.88;;
1402;SDS011;696;48.546;9.896;2023-05-07T12:19:56;9.20;;;1.80;;
1402;SDS011;696;48.546;9.896;2023-05-07T12:22:22;2.25;;;1.77;;
1402;SDS011;696;48.546;9.896;2023-05-07T12:24:48;2.70;;;1.90;;
1402;SDS011;696;48.546;9.896;2023-05-07T12:27:15;2.70;;;1.90;;
1402;SDS011;696;48.546;9.896;2023-05-07T12:29:45;3.03;;;2.20;;
1402;SDS011;696;48.546;9.896;2023-05-07T12:32:18;1.80;;;1.70;;
1402;SDS011;696;48.546;9.896;2023-05-07T12:34:45;3.10;;;2.00;;
1402;SDS011;696;48.546;9.896;2023-05-07T12:37:15;2.78;;;1.65;;
1402;SDS011;696;48.546;9.896;2023-05-07T12:39:47;2.33;;;1.60;;
1402;SDS011;696;48.546;9.896;2023-05-07T12:42:16;2.95;;;1.52;;
1402;SDS011;696;48.546;9.896;2023-05-07T12:44:45;2.90;;;1.70;;
1402;SDS011;696;48.546;9.896;2023-05-07T12:47:11;2.83;;;1.90;;
1402;SDS011;696;48.546;9.896;2023-05-07T12:49:37;2.42;;;2.05;;
1402;SDS011;696;48.546;9.896;2023-05-07T12:52:03;2.75;;;2.13;;
1402;SDS011;696;48.546;9.896;2023-05-07T12:54:30;2.20;;;2.00;;
1402;SDS011;696;48.546;9.896;2023-05-07T12:59:31;3.25;;;1.60;;
1402;SDS011;696;48.546;9.896;2023-05-07T13:02:05;4.60;;;1.92;;
1402;SDS011;696;48.546;9.896;2023-05-07T13:04:32;3.15;;;1.83;;
1402;SDS011;696;48.546;9.896;2023-05-07T13:06:58;3.25;;;2.03;;
1402;SDS011;696;48.546;9.896;2023-05-07T13:09:27;3.35;;;1.83;;
1402;SDS011;696;48.546;9.896;2023-05-07T13:11:54;3.33;;;1.60;;
1402;SDS011;696;48.546;9.896;2023-05-07T13:14:28;2.42;;;2.08;;
1402;SDS011;696;48.546;9.896;2023-05-07T13:16:53;3.60;;;2.15;;
1402;SDS011;696;48.546;9.896;2023-05-07T13:19:19;2.58;;;1.77;;
1402;SDS011;696;48.546;9.896;2023-05-07T13:21:44;2.63;;;1.92;;
1402;SDS011;696;48.546;9.896;2023-05-07T13:24:10;2.38;;;1.45;;
1402;SDS011;696;48.546;9.896;2023-05-07T13:26:35;2.55;;;1.85;;
1402;SDS011;696;48.546;9.896;2023-05-07T13:29:00;3.25;;;1.73;;
1402;SDS011;696;48.546;9.896;2023-05-07T13:31:26;1.77;;;1.35;;
1402;SDS011;696;48.546;9.896;2023-05-07T13:33:51;2.33;;;1.38;;
1402;SDS011;696;48.546;9.896;2023-05-07T13:36:17;5.50;;;1.30;;
1402;SDS011;696;48.546;9.896;2023-05-07T13:38:43;3.38;;;1.48;;
1402;SDS011;696;48.546;9.896;2023-05-07T13:41:08;5.25;;;1.73;;
1402;SDS011;696;48.546;9.896;2023-05-07T13:43:34;3.50;;;1.67;;
1402;SDS011;696;48.546;9.896;2023-05-07T13:46:01;2.38;;;1.73;;
1402;SDS011;696;48.546;9.896;2023-05-07T13:48:26;3.80;;;1.90;;
1402;SDS011;696;48.546;9.896;2023-05-07T13:50:53;1.45;;;1.20;;
1402;SDS011;696;48.546;9.896;2023-05-07T13:53:18;1.92;;;1.60;;
1402;SDS011;696;48.546;9.896;2023-05-07T13:55:44;2.65;;;1.63;;
1402;SDS011;696;48.546;9.896;2023-05-07T13:58:10;2.85;;;1.73;;
1402;SDS011;696;48.546;9.896;2023-05-07T14:00:35;2.55;;;1.48;;
1402;SDS011;696;48.546;9.896;2023-05-07T14:03:01;1.65;;;1.40;;
1402;SDS011;696;48.546;9.896;2023-05-07T14:05:26;4.07;;;1.80;;
1402;SDS011;696;48.546;9.896;2023-05-07T14:07:53;2.55;;;1.70;;
1402;SDS011;696;48.546;9.896;2023-05-07T14:10:19;8.50;;;2.50;;
1402;SDS011;696;48.546;9.896;2023-05-07T14:12:46;3.53;;;1.83;;
1402;SDS011;696;48.546;9.896;2023-05-07T14:15:12;3.88;;;2.10;;
1402;SDS011;696;48.546;9.896;2023-05-07T14:17:37;3.92;;;2.38;;
1402;SDS011;696;48.546;9.896;2023-05-07T14:20:03;3.83;;;2.10;;
1402;SDS011;696;48.546;9.896;2023-05-07T14:22:31;3.70;;;2.55;;
1402;SDS011;696;48.546;9.896;2023-05-07T14:25:01;3.45;;;2.30;;
1402;SDS011;696;48.546;9.896;2023-05-07T14:27:27;2.38;;;2.17;;
1402;SDS011;696;48.546;9.896;2023-05-07T14:29:53;2.65;;;2.30;;
1402;SDS011;696;48.546;9.896;2023-05-07T14:32:18;4.22;;;2.90;;
1402;SDS011;696;48.546;9.896;2023-05-07T14:34:44;7.15;;;2.28;;
1402;SDS011;696;48.546;9.896;2023-05-07T14:37:10;4.78;;;3.17;;
1402;SDS011;696;48.546;9.896;2023-05-07T14:39:35;2.95;;;2.47;;
1402;SDS011;696;48.546;9.896;2023-05-07T14:42:01;4.55;;;3.25;;
1402;SDS011;696;48.546;9.896;2023-05-07T14:44:26;6.07;;;2.67;;
1402;SDS011;696;48.546;9.896;2023-05-07T14:46:51;3.55;;;2.85;;
1402;SDS011;696;48.546;9.896;2023-05-07T14:49:17;4.38;;;2.70;;
1402;SDS011;696;48.546;9.896;2023-05-07T14:51:43;6.85;;;2.92;;
1402;SDS011;696;48.546;9.896;2023-05-07T14:54:09;6.07;;;2.67;;
1402;SDS011;696;48.546;9.896;2023-05-07T14:56:35;5.13;;;2.70;;
1402;SDS011;696;48.546;9.896;2023-05-07T14:59:01;5.70;;;2.97;;
1402;SDS011;696;48.546;9.896;2023-05-07T15:01:27;2.90;;;2.30;;
1402;SDS011;696;48.546;9.896;2023-05-07T15:03:53;7.38;;;2.90;;
1402;SDS011;696;48.546;9.896;2023-05-07T15:06:18;2.85;;;2.38;;
1402;SDS011;696;48.546;9.896;2023-05-07T15:08:44;3.17;;;2.40;;
1402;SDS011;696;48.546;9.896;2023-05-07T15:11:09;6.43;;;2.75;;
1402;SDS011;696;48.546;9.896;2023-05-07T15:13:35;7.07;;;2.97;;
1402;SDS011;696;48.546;9.896;2023-05-07T15:16:00;5.63;;;3.20;;
1402;SDS011;696;48.546;9.896;2023-05-07T15:18:25;4.95;;;2.72;;
1402;SDS011;696;48.546;9.896;2023-05-07T15:20:51;3.60;;;2.88;;
1402;SDS011;696;48.546;9.896;2023-05-07T15:23:17;3.92;;;2.20;;
1402;SDS011;696;48.546;9.896;2023-05-07T15:25:44;6.80;;;2.63;;
1402;SDS011;696;48.546;9.896;2023-05-07T15:28:10;6.63;;;1.95;;
1402;SDS011;696;48.546;9.896;2023-05-07T15:30:35;2.38;;;1.80;;
1402;SDS011;696;48.546;9.896;2023-05-07T15:33:01;3.88;;;2.03;;
1402;SDS011;696;48.546;9.896;2023-05-07T15:35:27;5.45;;;3.08;;